Palm Springs, CA

6:16 AM PDT on August 30, 2016 (GMT -0700)
North Palm Springs | | Change Station

Elev 636 ft 33.86 °N, 116.55 °W | Updated 2 minutes ago

Clear
Clear
87.0 °F
Feels Like 84 °F
N
0.9
Wind Variable Wind from North

Today
High -- | Low -- °F
--% Chance of Precip.
Yesterday
High -- | Low -- °F
Precip. -- in
Pressure 29.77 in
Visibility 10.0 miles
Clouds Clear
Heat Index 84 °F
Dew Point 47 °F
Humidity 25%
Rainfall Not available.
Snow Depth Not available.
6:19 AM 7:13 PM
Waning Crescent, 4% visible
METAR KPSP 301253Z 31004KT 10SM CLR 31/09 A2978 RMK AO2 SLP079 T03110089
Pressure 29.77 in
Visibility 10.0 miles
Clouds Clear
Heat Index 84 °F
Dew Point 47 °F
Humidity 25%
Rainfall Not available.
Snow Depth Not available.
6:19 AM 7:13 PM
Waning Crescent, 4% visible
METAR KPSP 301253Z 31004KT 10SM CLR 31/09 A2978 RMK AO2 SLP079 T03110089

10-Day Weather Forecast

Almanac

Astronomy

Aug. 30, 2016 Rise Set
Actual Time
Civil Twilight
Nautical Twilight
Astronomical Twilight
Moon
Length of Visible Light
Length of Day
Tomorrow will be .
, % of the Moon is Illuminated

Today's Extremes

State Highs State Lows

Community

WunderPhotos

Upload Photos

1,935,831 photos uploaded!

WunderBlog® & News

Nearby

Air Quality

  Air Quality AQ Index Pollutant
Not available.

Snow Depth

Station Depth Elevation

Earthquake Activity

City Distance Mag. Time & Date
Minimum magnitude displayed is 2.5.

Coastal Water Temperatures

Place Temperature

Stations

Nearby Weather Stations

Station Location Temp. Windchill Dew Point Humidity Wind Precip. Elev Updated Type
                   

Watches & Warnings

There are currently no watches in effect.